| time (UTC) | temp F | wind direction | speed MPH | gust MPH | rain 1hr in | rain 24hr in | rain mn in | humidity % | barometer mb |
| 20260505002940 | 38 | 112 | 0.0 | 0.0 | 0.07 | 0.07 | 0.07 | 86 | 2099.4 |
| 20260505001138 | 37 | 112 | 0.0 | 1.0 | 0.07 | 0.07 | 0.07 | 84 | 2100.4 |
| 20260505001040 | 37 | 112 | 0.0 | 1.0 | 0.07 | 0.07 | 0.07 | 83 | 2100.0 |
| 20260505000050 | 37 | 112 | 3.0 | 4.0 | 0.06 | 0.06 | 0.06 | 81 | 2100.4 |
| 20260504235138 | 38 | 112 | 4.0 | 4.0 | 0.06 | 0.06 | 0.05 | 76 | 2100.3 |
| 20260504235041 | 38 | 112 | 2.0 | 3.0 | 0.05 | 0.05 | 0.05 | 76 | 2100.5 |
| 20260504234138 | 40 | 337 | 0.0 | 1.0 | 0.03 | 0.03 | 0.03 | 69 | 2100.5 |
| 20260504233137 | 44 | 291 | 2.0 | 4.0 | 0.00 | 0.00 | 0.00 | 57 | 2099.5 |
| 20260504232140 | 45 | 185 | 1.0 | 4.0 | 0.00 | 0.00 | 0.00 | 50 | 2099.1 |
| 20260504232040 | 45 | 189 | 2.0 | 4.0 | 0.00 | 0.00 | 0.00 | 50 | 2098.7 |
| 20260504231037 | 47 | 202 | 2.0 | 3.0 | 0.00 | 0.00 | 0.00 | 47 | 2097.4 |
| 20260504230041 | 48 | 285 | 1.0 | 4.0 | 0.00 | 0.00 | 0.00 | 44 | 2096.8 |
| 20260504225038 | 50 | 126 | 1.0 | 3.0 | 0.00 | 0.00 | 0.00 | 40 | 2096.8 |
| 20260504224040 | 51 | 112 | 2.0 | 3.0 | 0.00 | 0.00 | 0.00 | 37 | 2096.4 |
| 20260504223940 | 51 | 103 | 1.0 | 4.0 | 0.00 | 0.00 | 0.00 | 37 | 2096.2 |
| 20260504222038 | 52 | 112 | 2.0 | 3.0 | 0.00 | 0.00 | 0.00 | 37 | 2096.8 |
| 20260504221039 | 52 | 119 | 2.0 | 4.0 | 0.00 | 0.00 | 0.00 | 36 | 2097.0 |
| 20260504220040 | 53 | 180 | 3.0 | 4.0 | 0.00 | 0.00 | 0.00 | 36 | 2096.9 |
| 20260504215039 | 53 | 126 | 1.0 | 3.0 | 0.00 | 0.00 | 0.00 | 38 | 2096.9 |
| 20260504214040 | 53 | 112 | 1.0 | 3.0 | 0.00 | 0.00 | 0.00 | 38 | 2096.8 |
| 20260504212039 | 54 | 121 | 3.0 | 4.0 | 0.00 | 0.00 | 0.00 | 37 | 2097.2 |
| 20260504211940 | 54 | 153 | 1.0 | 4.0 | 0.00 | 0.00 | 0.00 | 37 | 2097.0 |
| 20260504210937 | 54 | 173 | 1.0 | 2.0 | 0.00 | 0.00 | 0.00 | 36 | 2097.4 |
| 20260504205939 | 54 | 137 | 1.0 | 1.0 | 0.00 | 0.00 | 0.00 | 35 | 2097.2 |
| 20260504204937 | 54 | 112 | 4.0 | 6.0 | 0.00 | 0.00 | 0.00 | 37 | 2097.4 |
| 20260504204037 | 55 | 135 | 2.0 | 4.0 | 0.00 | 0.00 | 0.00 | 36 | 2097.4 |
| 20260504203039 | 54 | 114 | 4.0 | 8.0 | 0.00 | 0.00 | 0.00 | 37 | 2097.9 |
| 20260504202040 | 54 | 213 | 1.0 | 4.0 | 0.00 | 0.00 | 0.00 | 36 | 2097.9 |
| 20260504201138 | 53 | 135 | 0.0 | 2.0 | 0.00 | 0.00 | 0.00 | 37 | 2097.9 |
| 20260504201037 | 53 | 123 | 2.0 | 3.0 | 0.00 | 0.00 | 0.00 | 37 | 2097.9 |
| 20260504200040 | 53 | 234 | 1.0 | 3.0 | 0.00 | 0.00 | 0.00 | 37 | 2098.2 |
| 20260504195138 | 52 | 240 | 2.0 | 4.0 | 0.00 | 0.00 | 0.00 | 37 | 2098.4 |
| 20260504194140 | 53 | 191 | 2.0 | 5.0 | 0.00 | 0.00 | 0.00 | 36 | 2098.6 |
| 20260504193139 | 53 | 253 | 1.0 | 4.0 | 0.00 | 0.00 | 0.00 | 33 | 2098.4 |
| 20260504193039 | 53 | 176 | 2.0 | 4.0 | 0.00 | 0.00 | 0.00 | 32 | 2098.4 |
| 20260504192038 | 53 | 172 | 4.0 | 7.0 | 0.00 | 0.00 | 0.00 | 30 | 2098.6 |
| 20260504191940 | 53 | 295 | 1.0 | 3.0 | 0.00 | 0.00 | 0.00 | 29 | 2098.6 |
| 20260504191038 | 55 | 112 | 3.0 | 5.0 | 0.00 | 0.00 | 0.00 | 26 | 2098.2 |
| 20260504190937 | 56 | 112 | 3.0 | 5.0 | 0.00 | 0.00 | 0.00 | 25 | 2098.6 |
| 20260504185942 | 58 | 240 | 2.0 | 4.0 | 0.00 | 0.00 | 0.00 | 26 | 2098.4 |
| 20260504184940 | 59 | 158 | 3.0 | 5.0 | 0.00 | 0.00 | 0.00 | 26 | 2098.2 |
| 20260504183941 | 59 | 255 | 3.0 | 5.0 | 0.00 | 0.00 | 0.00 | 26 | 2098.4 |
| 20260504182939 | 58 | 111 | 6.0 | 8.0 | 0.00 | 0.00 | 0.00 | 23 | 2098.6 |
| 20260504180938 | 56 | 243 | 2.0 | 5.0 | 0.00 | 0.00 | 0.00 | 28 | 2099.1 |
| 20260504175939 | 55 | 221 | 4.0 | 6.0 | 0.00 | 0.00 | 0.00 | 29 | 2099.4 |
| 20260504175038 | 53 | 292 | 2.0 | 4.0 | 0.00 | 0.00 | 0.00 | 28 | 2099.5 |
| 20260504173137 | 52 | 292 | 4.0 | 7.0 | 0.00 | 0.00 | 0.00 | 28 | 2100.0 |
| 20260504172237 | 52 | 292 | 4.0 | 6.0 | 0.00 | 0.00 | 0.00 | 29 | 2100.7 |
| 20260504171237 | 52 | 290 | 4.0 | 8.0 | 0.00 | 0.00 | 0.00 | 29 | 2100.3 |
| 20260504170238 | 54 | 259 | 3.0 | 6.0 | 0.00 | 0.00 | 0.00 | 28 | 2100.3 |
| 20260504170137 | 54 | 272 | 4.0 | 7.0 | 0.00 | 0.00 | 0.00 | 28 | 2100.5 |
| 20260504160239 | 51 | 266 | 6.0 | 10.0 | 0.00 | 0.00 | 0.00 | 36 | 2101.6 |
| 20260504140238 | 44 | 270 | 2.0 | 3.0 | 0.00 | 0.00 | 0.00 | 42 | 2102.6 |
| 20260504120239 | 33 | 337 | 0.0 | 2.0 | 0.00 | 0.00 | 0.00 | 57 | 2101.5 |
| 20260504110240 | 33 | 90 | 0.0 | 0.0 | 0.00 | 0.00 | 0.00 | 55 | 2101.8 |
| 20260504100539 | 34 | 337 | 0.0 | 0.0 | 0.00 | 0.00 | 0.00 | 52 | 2102.3 |
| 20260504100438 | 34 | 337 | 0.0 | 0.0 | 0.00 | 0.00 | 0.00 | 51 | 2102.3 |
| 20260504081437 | 33 | 330 | 1.0 | 2.0 | 0.00 | 0.00 | 0.00 | 55 | 2103.8 |
| 20260504080537 | 33 | 329 | 2.0 | 4.0 | 0.00 | 0.00 | 0.00 | 57 | 2103.6 |
| 20260504050532 | 41 | 337 | 0.0 | 0.0 | 0.00 | 0.00 | 0.00 | 42 | 2106.3 |
| 20260504050430 | 41 | 337 | 0.0 | 0.0 | 0.00 | 0.00 | 0.00 | 41 | 2106.4 |
| 20260504045432 | 42 | 337 | 0.0 | 1.0 | 0.00 | 0.00 | 0.00 | 40 | 2106.5 |
| 20260504044432 | 42 | 315 | 2.0 | 2.0 | 0.00 | 0.00 | 0.00 | 39 | 2106.5 |
| 20260504043432 | 42 | 315 | 2.0 | 3.0 | 0.00 | 0.00 | 0.00 | 39 | 2106.8 |
| 20260504042431 | 43 | 315 | 2.0 | 3.0 | 0.00 | 0.00 | 0.00 | 41 | 2106.9 |
| 20260504042332 | 43 | 315 | 2.0 | 3.0 | 0.00 | 0.00 | 0.00 | 40 | 2107.0 |
| 20260504041430 | 43 | 337 | 2.0 | 3.0 | 0.00 | 0.00 | 0.00 | 39 | 2107.3 |
| 20260504035530 | 42 | 316 | 3.0 | 4.0 | 0.00 | 0.00 | 0.00 | 41 | 2107.1 |
| 20260504035431 | 42 | 318 | 3.0 | 5.0 | 0.00 | 0.00 | 0.00 | 41 | 2107.1 |
| 20260504034431 | 43 | 315 | 2.0 | 2.0 | 0.00 | 0.00 | 0.00 | 39 | 2107.1 |
| 20260504033431 | 44 | 315 | 1.0 | 1.0 | 0.00 | 0.00 | 0.00 | 37 | 2107.1 |
| 20260504032529 | 44 | 337 | 2.0 | 3.0 | 0.00 | 0.00 | 0.00 | 38 | 2107.3 |
| 20260504031534 | 44 | 337 | 1.0 | 2.0 | 0.00 | 0.00 | 0.00 | 36 | 2106.9 |
| 20260504025532 | 44 | 337 | 2.0 | 3.0 | 0.00 | 0.00 | 0.00 | 37 | 2107.0 |
| 20260504023530 | 46 | 315 | 0.0 | 0.0 | 0.00 | 0.00 | 0.00 | 34 | 2106.5 |
| 20260504022533 | 47 | 315 | 0.0 | 0.0 | 0.00 | 0.00 | 0.00 | 32 | 2106.8 |
| 20260504021533 | 48 | 315 | 0.0 | 0.0 | 0.00 | 0.00 | 0.00 | 31 | 2106.5 |
| 20260504020530 | 49 | 315 | 0.0 | 0.0 | 0.00 | 0.00 | 0.00 | 29 | 2106.4 |
| 20260504015629 | 50 | 315 | 1.0 | 1.0 | 0.00 | 0.00 | 0.00 | 27 | 2106.1 |
| 20260504014632 | 50 | 292 | 1.0 | 2.0 | 0.00 | 0.00 | 0.00 | 28 | 2106.1 |
| 20260504013730 | 51 | 292 | 2.0 | 3.0 | 0.00 | 0.00 | 0.00 | 27 | 2105.9 |
| 20260504012748 | 52 | 292 | 2.0 | 3.0 | 0.00 | 0.00 | 0.00 | 27 | 2105.9 |
| 20260504011732 | 52 | 292 | 1.0 | 2.0 | 0.00 | 0.00 | 0.00 | 26 | 2105.9 |
| 20260504010731 | 52 | 292 | 5.0 | 7.0 | 0.00 | 0.00 | 0.00 | 26 | 2105.9 |
| 20260504005830 | 52 | 288 | 5.0 | 7.0 | 0.00 | 0.00 | 0.00 | 26 | 2106.1 |
| 20260504005730 | 52 | 279 | 4.0 | 7.0 | 0.00 | 0.00 | 0.00 | 25 | 2106.1 |
| 20260504004733 | 53 | 277 | 5.0 | 7.0 | 0.00 | 0.00 | 0.00 | 24 | 2105.7 |